METAR Reports From Nearby Airports

 

KLUD - Decatur, Texas, USA
Distance from Wildwood: IKA 5mi, 8km
Päivitetty: Mar 31, 2020 4:35pm
Partly Cloudy
Partly Cloudy
 Tuulen suunta KO
Tuuli: KO 6 mph , 9 km/h
Lämpötila: 63°F , 17°C
Kastepiste: 46°F , 8°C
Kosteus: 56%
Ilmanpaine: 30.03 inHg , 1016.9 hPa
Clouds: Partly Cloudy
Visibility: 10 miles , 16 km
Cloud details: Partly Cloudy 4300 ft
2020/03/31 21:35 KLUD 312135Z AUTO 05005KT 10SM SCT043 17/08 A3003 RMK AO2 T01740076
KXBP - Bridgeport, Texas, USA
Distance from Wildwood: LLO 11mi, 18km
Päivitetty: Mar 31, 2020 4:35pm
Partly Cloudy
Partly Cloudy
 Tuulen suunta PLU
Tuuli: PLU 6 mph , 9 km/h
Lämpötila: 66°F , 19°C
Kastepiste: 46°F , 8°C
Kosteus: 49%
Ilmanpaine: 30.06 inHg , 1017.9 hPa
Clouds: Partly Cloudy
Visibility: 10 miles , 16 km
Cloud details: Partly Cloudy 4200 ft
2020/03/31 21:35 KXBP 312135Z AUTO 33005KT 10SM SCT042 19/08 A3006 RMK AO2 T01900083
 
K0F2 - Bowie, Texas, USA
Distance from Wildwood: PLU 24mi, 39km
Päivitetty: Mar 31, 2020 4:35pm
Mostly Cloudy
Mostly Cloudy
 Tuulen suunta calm
Tuuli: Tyyntä
Lämpötila: 66°F , 19°C
Kastepiste: 48°F , 9°C
Kosteus: 52%
Ilmanpaine: 30.04 inHg , 1017.3 hPa
Clouds: Mostly Cloudy
Visibility: 10 miles , 16 km
Cloud details: Mostly Cloudy 3900 ft
2020/03/31 21:35 K0F2 312135Z AUTO 00000KT 10SM BKN039 19/09 A3004 RMK AO2 T01910093
KDTO - Denton, Texas, USA
Distance from Wildwood: I 27mi, 44km
Päivitetty: Mar 31, 2020 3:53pm
Mostly Cloudy
Mostly Cloudy
 Tuulen suunta PLU
Tuuli: PLU 6 mph , 9 km/h
Lämpötila: 63°F , 17°C
Kastepiste: 46°F , 8°C
Kosteus: 56%
Ilmanpaine: 30.05 inHg , 1017.6 hPa
Clouds: Mostly Cloudy
Visibility: 10 miles , 16 km
Cloud details: Mostly Cloudy 4200 ft
2020/03/31 20:53 KDTO 312053Z 33005KT 10SM BKN042 17/08 A3005 RMK AO2 SLP171 T01720078 58017
 
KAFW - Ft Worth/Allianc, Texas, USA
Distance from Wildwood: KA 29mi, 46km
Päivitetty: Mar 31, 2020 3:53pm
Mostly Cloudy
Mostly Cloudy
 Tuulen suunta PLU
Tuuli: PLU 7 mph , 11 km/h
Lämpötila: 66°F , 19°C
Kastepiste: 48°F , 9°C
Kosteus: 52%
Ilmanpaine: 30.04 inHg , 1017.3 hPa
Clouds: Mostly Cloudy
Visibility: 10 miles , 16 km
Cloud details: Mostly Cloudy 4000 ft
Mostly Cloudy 25000 ft
2020/03/31 20:53 KAFW 312053Z 34006KT 10SM BKN040 BKN250 19/09 A3004 RMK AO2 SLP169 T01940094 58015
KFTW - Fort Worth, Texas, USA
Distance from Wildwood: EKA 34mi, 55km
Päivitetty: Mar 31, 2020 3:53pm
Mostly Cloudy
Mostly Cloudy
 Tuulen suunta P
Tuuli: P 12 mph , 19 km/h
Lämpötila: 64°F , 18°C
Kastepiste: 50°F , 10°C
Kosteus: 60%
Ilmanpaine: 30.04 inHg , 1017.3 hPa
Clouds: Mostly Cloudy
Visibility: 10 miles , 16 km
Cloud details: Mostly Cloudy 4000 ft
2020/03/31 20:53 KFTW 312053Z 36010KT 10SM BKN040 18/10 A3004 RMK AO2 SLP168 T01830100 58018
 
KNFW - Fort Worth Nas, Texas, USA
Distance from Wildwood: EKA 36mi, 58km
Päivitetty: Mar 31, 2020 3:52pm
Mostly Cloudy
Mostly Cloudy
 Tuulen suunta PLU
Tuuli: PLU 8 mph , 13 km/h
Lämpötila: 68°F , 20°C
Kastepiste: 48°F , 9°C
Kosteus: 49%
Ilmanpaine: 30.04 inHg , 1017.3 hPa
Clouds: Mostly Cloudy
Visibility: 10 miles , 16 km
Cloud details: Mostly Cloudy 4200 ft
2020/03/31 20:52 KNFW 312052Z 34007KT 10SM BKN042 20/09 A3004 RMK AO2 SLP157 T02000094 58020 VISNO N $
KGLE - Gainesville, Texas, USA
Distance from Wildwood: KO 38mi, 61km
Päivitetty: Mar 31, 2020 4:35pm
Partly Cloudy
Partly Cloudy
 Tuulen suunta calm
Tuuli: Tyyntä
Lämpötila: 64°F , 18°C
Kastepiste: 45°F , 7°C
Kosteus: 49%
Ilmanpaine: 30.05 inHg , 1017.6 hPa
Clouds: Partly Cloudy
Visibility: 10 miles , 16 km
Cloud details: Partly Cloudy 4400 ft
2020/03/31 21:35 KGLE 312135Z AUTO 00000KT 10SM SCT044 18/07 A3005 RMK AO2 T01780068 PWINO
 
KMWL - Mineral Wells, Texas, USA
Distance from Wildwood: LO 41mi, 65km
Päivitetty: Mar 31, 2020 3:53pm
Few Clouds
Few Clouds
 Tuulen suunta KO
Tuuli: KO 8 mph , 13 km/h
Lämpötila: 66°F , 19°C
Kastepiste: 48°F , 9°C
Kosteus: 52%
Ilmanpaine: 30.04 inHg , 1017.3 hPa
Clouds: Few Clouds
Visibility: 10 miles , 16 km
Cloud details: Few Clouds 3900 ft
2020/03/31 20:53 KMWL 312053Z AUTO 04007KT 10SM FEW039 19/09 A3004 RMK AO2 SLP164 T01890089 58024
KDFW - Dallas/Ft Worth, Texas, USA
Distance from Wildwood: IKA 45mi, 73km
Päivitetty: Mar 31, 2020 3:53pm
Mostly Cloudy
Mostly Cloudy
 Tuulen suunta P
Tuuli: P 8 mph , 13 km/h
Lämpötila: 64°F , 18°C
Kastepiste: 48°F , 9°C
Kosteus: 56%
Ilmanpaine: 30.03 inHg , 1016.9 hPa
Clouds: Mostly Cloudy
Visibility: 10 miles , 16 km
Cloud details: Mostly Cloudy 4100 ft
2020/03/31 20:53 KDFW 312053Z 01007KT 10SM BKN041 18/09 A3003 RMK AO2 SLP165 T01780089 58016